createdAt,value
2023-04-02T00:00:31.136Z,94152.18
2023-04-02T00:03:22.335Z,94155.16
2023-04-02T00:05:51.046Z,94153.21
2023-04-02T00:08:24.451Z,94152.40
2023-04-02T00:10:58.021Z,94154.48
2023-04-02T00:13:32.210Z,94156.08
2023-04-02T00:16:03.538Z,94157.00
2023-04-02T00:18:34.319Z,94157.27
2023-04-02T00:21:13.729Z,94155.97
2023-04-02T00:23:44.261Z,94156.96
2023-04-02T00:26:42.640Z,94155.45
2023-04-02T00:29:14.159Z,94159.42
2023-04-02T00:31:44.987Z,94162.69
2023-04-02T00:34:22.770Z,94160.85
2023-04-02T00:36:52.482Z,94159.58
2023-04-02T00:39:30.934Z,94159.70
2023-04-02T00:42:05.844Z,94159.34
2023-04-02T00:44:45.314Z,94158.27
2023-04-02T00:47:27.667Z,94153.09
2023-04-02T00:50:21.059Z,94160.35
2023-04-02T00:52:52.570Z,94158.71
2023-04-02T00:55:41.862Z,94160.14
2023-04-02T00:58:32.803Z,94164.59
2023-04-02T01:01:01.591Z,94164.71
2023-04-02T01:03:35.284Z,94165.27
2023-04-02T01:06:11.793Z,94165.65
2023-04-02T01:08:45.848Z,94172.40
2023-04-02T01:11:32.401Z,94172.63
2023-04-02T01:14:20.579Z,94174.81
2023-04-02T01:17:26.578Z,94174.21
2023-04-02T01:20:19.795Z,94171.76
2023-04-02T01:23:11.603Z,94177.08
2023-04-02T01:26:14.425Z,94177.89
2023-04-02T01:28:54.999Z,94180.77
2023-04-02T01:31:24.127Z,94181.39
2023-04-02T01:33:52.371Z,94181.26
2023-04-02T01:36:23.455Z,94182.73
2023-04-02T01:39:10.779Z,94185.69
2023-04-02T01:41:41.873Z,94186.33
2023-04-02T01:44:15.402Z,94183.83
2023-04-02T01:46:45.038Z,94186.80
2023-04-02T01:49:18.729Z,94187.14
2023-04-02T01:51:53.171Z,94186.48
2023-04-02T01:54:23.628Z,94180.19
2023-04-02T01:56:52.341Z,94183.45
2023-04-02T01:59:22.652Z,94180.73
2023-04-02T02:02:05.492Z,94180.89
2023-04-02T02:04:35.648Z,94180.02
2023-04-02T02:07:05.002Z,94178.30
2023-04-02T02:09:35.744Z,94180.16
2023-04-02T02:12:05.356Z,94179.35
2023-04-02T02:14:33.672Z,94182.27
2023-04-02T02:17:04.402Z,94182.20
2023-04-02T02:19:37.102Z,94181.96
2023-04-02T02:22:24.323Z,94187.33
2023-04-02T02:24:54.776Z,94191.70
2023-04-02T02:27:23.243Z,94197.60
2023-04-02T02:30:19.344Z,94200.88
2023-04-02T02:32:57.972Z,94196.45
2023-04-02T02:35:56.189Z,94196.61
2023-04-02T02:38:34.119Z,94201.20
2023-04-02T02:41:21.734Z,94202.78
2023-04-02T02:44:20.118Z,94203.70
2023-04-02T02:46:54.404Z,94205.15
2023-04-02T02:49:26.323Z,94207.95
2023-04-02T02:52:10.169Z,94210.25
2023-04-02T02:54:51.258Z,94210.54
2023-04-02T02:57:27.766Z,94214.96
2023-04-02T02:59:59.474Z,94212.55
2023-04-02T03:02:29.142Z,94211.30
2023-04-02T03:04:58.528Z,94214.10
2023-04-02T03:07:29.380Z,94215.32
2023-04-02T03:10:18.304Z,94217.11
2023-04-02T03:13:26.505Z,94216.48
2023-04-02T03:16:17.930Z,94220.55
2023-04-02T03:18:56.027Z,94223.66
2023-04-02T03:21:37.461Z,94225.05
2023-04-02T03:24:18.086Z,94224.42
2023-04-02T03:26:56.401Z,94228.42
2023-04-02T03:29:34.200Z,94231.84
2023-04-02T03:32:21.345Z,94233.51
2023-04-02T03:34:59.724Z,94236.66
2023-04-02T03:37:41.184Z,94240.44
2023-04-02T03:40:21.301Z,94243.59
2023-04-02T03:43:12.345Z,94244.66
2023-04-02T03:45:46.021Z,94243.72
2023-04-02T03:48:18.611Z,94244.32
2023-04-02T03:50:53.515Z,94246.44
2023-04-02T03:53:25.802Z,94249.30
2023-04-02T03:55:56.645Z,94255.16
2023-04-02T03:58:47.140Z,94256.68
2023-04-02T04:01:29.953Z,94257.86
2023-04-02T04:04:06.036Z,94265.08
2023-04-02T04:06:35.843Z,94265.38
2023-04-02T04:09:29.680Z,94264.29
2023-04-02T04:12:07.828Z,94266.48
2023-04-02T04:14:41.900Z,94266.77
2023-04-02T04:17:23.908Z,94269.23
2023-04-02T04:20:00.236Z,94272.74
2023-04-02T04:22:32.898Z,94274.00
2023-04-02T04:25:33.906Z,94275.39
2023-04-02T04:28:38.623Z,94278.50
2023-04-02T04:31:47.337Z,94282.42
2023-04-02T04:34:31.501Z,94282.98
2023-04-02T04:37:07.740Z,94286.12
2023-04-02T04:39:55.707Z,94288.36
2023-04-02T04:42:29.191Z,94290.33
2023-04-02T04:45:28.730Z,94291.09
2023-04-02T04:48:10.842Z,94293.20
2023-04-02T04:50:55.282Z,94295.96
2023-04-02T04:53:27.716Z,94304.79
2023-04-02T04:56:16.556Z,94307.15
2023-04-02T04:58:51.364Z,94305.73
2023-04-02T05:01:19.517Z,94309.09
2023-04-02T05:04:03.208Z,94313.64
2023-04-02T05:06:39.764Z,94315.62
2023-04-02T05:09:23.237Z,94319.83
2023-04-02T05:12:24.776Z,94317.64
2023-04-02T05:15:17.568Z,94319.86
2023-04-02T05:17:53.766Z,94324.32
2023-04-02T05:20:28.639Z,94323.80
2023-04-02T05:23:05.329Z,94325.85
2023-04-02T05:25:34.214Z,94324.20
2023-04-02T05:28:26.786Z,94325.79
2023-04-02T05:31:04.401Z,94326.17
2023-04-02T05:33:35.472Z,94327.71
2023-04-02T05:36:19.629Z,94332.43
2023-04-02T05:38:52.242Z,94337.59
2023-04-02T05:41:36.939Z,94337.02
2023-04-02T05:44:50.072Z,94337.63
2023-04-02T05:47:26.303Z,94337.21
2023-04-02T05:50:07.656Z,94340.84
2023-04-02T05:52:45.884Z,94341.35
2023-04-02T05:55:17.069Z,94349.01
2023-04-02T05:58:13.626Z,94348.00
2023-04-02T06:01:04.336Z,94349.95
2023-04-02T06:03:35.399Z,94350.41
2023-04-02T06:06:14.755Z,94352.02
2023-04-02T06:08:52.275Z,94352.41
2023-04-02T06:11:27.404Z,94351.41
2023-04-02T06:13:56.216Z,94353.05
2023-04-02T06:16:28.850Z,94357.03
2023-04-02T06:18:57.949Z,94356.89
2023-04-02T06:21:27.084Z,94357.51
2023-04-02T06:24:01.708Z,94358.23
2023-04-02T06:26:38.261Z,94356.77
2023-04-02T06:29:25.762Z,94354.42
2023-04-02T06:32:01.919Z,94353.33
2023-04-02T06:34:31.951Z,94350.39
2023-04-02T06:37:40.001Z,94353.78
2023-04-02T06:40:33.688Z,94355.95
2023-04-02T06:43:36.239Z,94359.09
2023-04-02T06:46:38.056Z,94363.83
2023-04-02T06:49:24.849Z,94364.27
2023-04-02T06:52:01.509Z,94366.86
2023-04-02T06:54:31.392Z,94369.64
2023-04-02T06:57:07.494Z,94368.27
2023-04-02T06:59:39.514Z,94374.94
2023-04-02T07:02:19.968Z,94376.38
2023-04-02T07:04:49.048Z,94380.39
2023-04-02T07:07:17.893Z,94381.77
2023-04-02T07:09:47.772Z,94385.70
2023-04-02T07:12:22.656Z,94385.48
2023-04-02T07:14:51.624Z,94385.15
2023-04-02T07:17:21.488Z,94389.86
2023-04-02T07:19:49.856Z,94390.57
2023-04-02T07:22:21.383Z,94393.42
2023-04-02T07:24:53.673Z,94391.19
2023-04-02T07:27:21.945Z,94395.08
2023-04-02T07:29:50.042Z,94397.10
2023-04-02T07:32:19.625Z,94402.39
2023-04-02T07:34:49.051Z,94405.51
2023-04-02T07:37:17.189Z,94407.89
2023-04-02T07:39:45.447Z,94407.66
2023-04-02T07:42:13.667Z,94412.93
2023-04-02T07:44:43.296Z,94414.17
2023-04-02T07:47:11.623Z,94415.09
2023-04-02T07:49:39.892Z,94423.14
2023-04-02T07:52:08.033Z,94420.83
2023-04-02T07:54:36.268Z,94418.55
2023-04-02T07:57:04.527Z,94424.16
2023-04-02T07:59:32.737Z,94424.80
2023-04-02T08:02:01.003Z,94424.99
2023-04-02T08:04:29.191Z,94425.18
2023-04-02T08:06:57.395Z,94425.05
2023-04-02T08:09:25.651Z,94422.20
2023-04-02T08:11:53.785Z,94423.14
2023-04-02T08:14:21.970Z,94420.79
2023-04-02T08:16:52.952Z,94418.30
2023-04-02T08:19:21.786Z,94419.80
2023-04-02T08:21:52.057Z,94419.98
2023-04-02T08:24:21.425Z,94419.64
2023-04-02T08:26:51.696Z,94416.52
2023-04-02T08:29:20.982Z,94418.83
2023-04-02T08:31:49.333Z,94419.17
2023-04-02T08:34:17.472Z,94422.42
2023-04-02T08:36:46.014Z,94425.25
2023-04-02T08:39:14.864Z,94424.04
2023-04-02T08:41:58.544Z,94426.77
2023-04-02T08:44:50.648Z,94428.45
2023-04-02T08:47:21.755Z,94429.73
2023-04-02T08:49:56.149Z,94430.33
2023-04-02T08:52:25.936Z,94428.40
2023-04-02T08:54:56.297Z,94433.38
2023-04-02T08:57:36.745Z,94432.13
2023-04-02T09:00:20.966Z,94435.30
2023-04-02T09:03:08.013Z,94436.48
2023-04-02T09:05:40.935Z,94437.10
2023-04-02T09:08:25.075Z,94438.17
2023-04-02T09:10:59.293Z,94442.10
2023-04-02T09:13:30.623Z,94443.44
2023-04-02T09:16:12.033Z,94449.90
2023-04-02T09:18:40.712Z,94450.45
2023-04-02T09:21:42.040Z,94452.52
2023-04-02T09:24:15.980Z,94454.17
2023-04-02T09:26:44.067Z,94457.13
2023-04-02T09:29:12.197Z,94461.92
2023-04-02T09:31:45.613Z,94464.20
2023-04-02T09:34:30.727Z,94462.89
2023-04-02T09:37:16.436Z,94466.08
2023-04-02T09:39:44.769Z,94467.00
2023-04-02T09:42:29.927Z,94465.81
2023-04-02T09:45:23.964Z,94470.88
2023-04-02T09:47:56.280Z,94474.38
2023-04-02T09:50:28.901Z,94473.02
2023-04-02T09:52:57.591Z,94475.33
2023-04-02T09:55:31.103Z,94473.14
2023-04-02T09:58:12.069Z,94474.64
2023-04-02T10:00:49.470Z,94476.38
2023-04-02T10:03:28.978Z,94475.53
2023-04-02T10:06:12.934Z,94475.42
2023-04-02T10:08:44.393Z,94477.02
2023-04-02T10:11:36.409Z,94477.87
2023-04-02T10:14:21.736Z,94478.52
2023-04-02T10:16:53.869Z,94484.95
2023-04-02T10:19:32.475Z,94486.55
2023-04-02T10:22:07.148Z,94485.83
2023-04-02T10:24:35.480Z,94488.70
2023-04-02T10:27:12.215Z,94481.19
2023-04-02T10:29:48.326Z,94484.70
2023-04-02T10:32:30.814Z,94484.23
2023-04-02T10:35:03.700Z,94481.20
2023-04-02T10:37:48.973Z,94477.55
2023-04-02T10:40:29.442Z,94479.93
2023-04-02T10:43:23.576Z,94483.09
2023-04-02T10:46:01.147Z,94489.79
2023-04-02T10:48:44.694Z,94489.91
2023-04-02T10:51:51.992Z,94491.55
2023-04-02T10:54:45.011Z,94494.48
2023-04-02T10:57:35.368Z,94496.22
2023-04-02T11:00:19.052Z,94495.79
2023-04-02T11:03:02.981Z,94499.48
2023-04-02T11:05:48.003Z,94497.20
2023-04-02T11:08:34.556Z,94498.91
2023-04-02T11:11:16.958Z,94499.72
2023-04-02T11:14:01.225Z,94500.55
2023-04-02T11:16:29.862Z,94502.93
2023-04-02T11:19:16.109Z,94505.63
2023-04-02T11:22:06.453Z,94500.38
2023-04-02T11:24:45.435Z,94502.54
2023-04-02T11:27:27.956Z,94508.52
2023-04-02T11:30:27.167Z,94506.17
2023-04-02T11:36:25.692Z,94507.89
2023-04-02T11:38:55.007Z,94509.20
2023-04-02T11:42:07.854Z,94512.74
2023-04-02T11:44:36.242Z,94514.50
2023-04-02T11:47:33.948Z,94516.88
2023-04-02T11:50:05.259Z,94514.69
2023-04-02T11:52:38.998Z,94515.44
2023-04-02T11:55:24.497Z,94519.60
2023-04-02T11:58:21.268Z,94516.14
2023-04-02T12:01:15.806Z,94515.11
2023-04-02T12:04:07.196Z,94517.52
2023-04-02T12:06:47.476Z,94514.77
2023-04-02T12:09:25.515Z,94517.41
2023-04-02T12:12:00.764Z,94518.73
2023-04-02T12:14:45.819Z,94517.15
2023-04-02T12:17:27.164Z,94515.96
2023-04-02T12:20:09.949Z,94515.72
2023-04-02T12:22:41.136Z,94515.32
2023-04-02T12:25:23.286Z,94512.59
2023-04-02T12:28:24.562Z,94514.44
2023-04-02T12:31:03.715Z,94510.84
2023-04-02T12:33:37.490Z,94508.91
2023-04-02T12:36:26.444Z,94510.07
2023-04-02T12:38:57.479Z,94510.52
2023-04-02T12:41:27.387Z,94510.63
2023-04-02T12:44:15.570Z,94509.90
2023-04-02T12:46:45.951Z,94509.22
2023-04-02T12:49:32.729Z,94511.62
2023-04-02T12:52:07.477Z,94514.16
2023-04-02T12:54:58.559Z,94510.39
2023-04-02T12:57:26.705Z,94506.17
2023-04-02T13:00:27.570Z,94508.17
2023-04-02T13:03:01.200Z,94504.33
2023-04-02T13:05:44.438Z,94510.41
2023-04-02T13:08:42.096Z,94510.81
2023-04-02T13:11:10.644Z,94514.70
2023-04-02T13:13:41.407Z,94515.08
2023-04-02T13:16:15.938Z,94509.13
2023-04-02T13:18:45.129Z,94512.18
2023-04-02T13:21:16.511Z,94511.80
2023-04-02T13:23:46.265Z,94512.23
2023-04-02T13:26:28.730Z,94516.13
2023-04-02T13:29:03.032Z,94516.29
2023-04-02T13:31:32.712Z,94514.92
2023-04-02T13:34:01.593Z,94516.73
2023-04-02T13:36:29.853Z,94513.73
2023-04-02T13:38:58.066Z,94512.83
2023-04-02T13:41:28.692Z,94509.69
2023-04-02T13:44:02.400Z,94511.39
2023-04-02T13:46:32.982Z,94509.17
2023-04-02T13:49:01.707Z,94508.71
2023-04-02T13:51:37.436Z,94506.79
2023-04-02T13:54:14.010Z,94504.85
2023-04-02T13:56:42.741Z,94511.28
2023-04-02T13:59:11.057Z,94511.52
2023-04-02T14:01:41.414Z,94509.24
2023-04-02T14:04:13.764Z,94514.56
2023-04-02T14:07:01.626Z,94511.35
2023-04-02T14:09:54.002Z,94514.95
2023-04-02T14:12:33.587Z,94517.33
2023-04-02T14:15:33.931Z,94516.17
2023-04-02T14:18:27.092Z,94516.15
2023-04-02T14:21:27.055Z,94515.61
2023-04-02T14:24:36.292Z,94521.02
2023-04-02T14:27:23.762Z,94523.99
2023-04-02T14:30:18.480Z,94523.12
2023-04-02T14:32:49.483Z,94521.17
2023-04-02T14:35:29.861Z,94520.84
2023-04-02T14:38:17.197Z,94516.23
2023-04-02T14:40:46.580Z,94517.36
2023-04-02T14:43:22.497Z,94519.63
2023-04-02T14:45:58.072Z,94516.98
2023-04-02T14:48:45.177Z,94515.73
2023-04-02T14:51:27.436Z,94516.52
2023-04-02T14:53:55.692Z,94516.70
2023-04-02T14:56:25.715Z,94515.26
2023-04-02T14:59:34.413Z,94514.75
2023-04-02T15:02:09.467Z,94515.27
2023-04-02T15:04:41.752Z,94507.30
2023-04-02T15:07:19.913Z,94509.50
2023-04-02T15:09:54.886Z,94506.61
2023-04-02T15:12:28.816Z,94509.00
2023-04-02T15:15:39.049Z,94511.83
2023-04-02T15:18:15.110Z,94512.91
2023-04-02T15:20:54.974Z,94511.65
2023-04-02T15:24:15.510Z,94511.25
2023-04-02T15:27:24.868Z,94512.75
2023-04-02T15:29:58.041Z,94514.92
2023-04-02T15:32:32.080Z,94511.46
2023-04-02T15:35:54.672Z,94518.07
2023-04-02T15:38:30.362Z,94521.70
2023-04-02T15:41:13.830Z,94526.23
2023-04-02T15:44:09.938Z,94532.54
2023-04-02T15:47:01.804Z,94538.48
2023-04-02T15:49:48.741Z,94547.05
2023-04-02T15:52:22.640Z,94549.98
2023-04-02T15:55:09.862Z,94553.61
2023-04-02T15:58:17.397Z,94556.73
2023-04-02T16:01:03.674Z,94560.51
2023-04-02T16:03:47.601Z,94566.26
2023-04-02T16:06:39.716Z,94572.87
2023-04-02T16:09:16.260Z,94577.14
2023-04-02T16:11:44.413Z,94585.35
2023-04-02T16:14:28.050Z,94588.78
2023-04-02T16:17:10.870Z,94590.58
2023-04-02T16:19:51.241Z,94589.70
2023-04-02T16:22:26.020Z,94590.80
2023-04-02T16:25:16.062Z,94589.19
2023-04-02T16:27:51.541Z,94592.31
2023-04-02T16:30:41.534Z,94597.90
2023-04-02T16:33:28.194Z,94596.23
2023-04-02T16:36:11.894Z,94602.63
2023-04-02T16:38:43.086Z,94603.60
2023-04-02T16:41:19.468Z,94606.59
2023-04-02T16:44:21.997Z,94606.93
2023-04-02T16:47:02.629Z,94608.75
2023-04-02T16:49:49.226Z,94608.70
2023-04-02T16:52:43.198Z,94612.29
2023-04-02T16:55:11.767Z,94617.60
2023-04-02T16:58:37.728Z,94618.36
2023-04-02T17:01:20.707Z,94620.75
2023-04-02T17:03:57.938Z,94624.39
2023-04-02T17:06:39.879Z,94622.14
2023-04-02T17:09:24.105Z,94627.30
2023-04-02T17:12:01.586Z,94630.13
2023-04-02T17:15:03.751Z,94630.19
2023-04-02T17:17:32.002Z,94634.30
2023-04-02T17:20:01.135Z,94636.06
2023-04-02T17:22:31.637Z,94637.55
2023-04-02T17:25:04.801Z,94639.55
2023-04-02T17:27:39.703Z,94641.74
2023-04-02T17:30:43.340Z,94645.39
2023-04-02T17:33:17.563Z,94646.44
2023-04-02T17:36:02.736Z,94649.58
2023-04-02T17:38:44.074Z,94652.95
2023-04-02T17:41:28.954Z,94656.98
2023-04-02T17:43:57.065Z,94653.52
2023-04-02T17:46:49.630Z,94659.77
2023-04-02T17:49:56.557Z,94661.84
2023-04-02T17:52:33.488Z,94661.46
2023-04-02T17:55:19.592Z,94661.90
2023-04-02T17:58:18.607Z,94665.95
2023-04-02T18:01:41.052Z,94666.11
2023-04-02T18:04:46.531Z,94674.98
2023-04-02T18:07:35.702Z,94675.73
2023-04-02T18:10:24.057Z,94677.88
2023-04-02T18:13:11.953Z,94682.25
2023-04-02T18:15:53.569Z,94685.85
2023-04-02T18:18:59.317Z,94686.59
2023-04-02T18:21:46.453Z,94691.86
2023-04-02T18:24:30.867Z,94694.89
2023-04-02T18:27:17.967Z,94697.89
2023-04-02T18:29:58.298Z,94698.23
2023-04-02T18:32:38.236Z,94703.08
2023-04-02T18:35:38.838Z,94702.87
2023-04-02T18:38:24.045Z,94703.04
2023-04-02T18:41:31.489Z,94706.60
2023-04-02T18:44:28.735Z,94708.86
2023-04-02T18:47:15.554Z,94712.02
2023-04-02T18:49:51.947Z,94713.75
2023-04-02T18:52:24.882Z,94713.62
2023-04-02T18:54:59.960Z,94717.70
2023-04-02T18:57:36.179Z,94715.89
2023-04-02T19:00:34.844Z,94712.30
2023-04-02T19:03:12.660Z,94715.80
2023-04-02T19:05:51.519Z,94715.70
2023-04-02T19:08:42.086Z,94716.98
2023-04-02T19:11:19.073Z,94720.27
2023-04-02T19:13:49.125Z,94725.52
2023-04-02T19:16:17.289Z,94722.62
2023-04-02T19:18:54.318Z,94727.05
2023-04-02T19:21:37.433Z,94727.50
2023-04-02T19:24:22.047Z,94728.48
2023-04-02T19:27:32.189Z,94727.35
2023-04-02T19:30:38.668Z,94726.69
2023-04-02T19:34:00.980Z,94722.95
2023-04-02T19:36:40.397Z,94720.23
2023-04-02T19:39:24.862Z,94722.55
2023-04-02T19:42:11.657Z,94721.15
2023-04-02T19:44:45.231Z,94723.52
2023-04-02T19:47:14.646Z,94719.38
2023-04-02T19:49:42.910Z,94726.77
2023-04-02T19:52:11.394Z,94724.30
2023-04-02T19:54:39.720Z,94721.05
2023-04-02T19:57:08.266Z,94720.39
2023-04-02T19:59:36.495Z,94722.95
2023-04-02T20:02:07.281Z,94725.05
2023-04-02T20:04:35.716Z,94720.30
2023-04-02T20:07:03.832Z,94726.24
2023-04-02T20:09:31.941Z,94727.06
2023-04-02T20:12:00.305Z,94730.95
2023-04-02T20:14:28.444Z,94736.35
2023-04-02T20:16:56.756Z,94736.14
2023-04-02T20:19:25.028Z,94738.17
2023-04-02T20:21:53.142Z,94740.19
2023-04-02T20:24:21.334Z,94742.08
2023-04-02T20:26:49.664Z,94740.13
2023-04-02T20:29:17.853Z,94741.73
2023-04-02T20:31:46.183Z,94738.79
2023-04-02T20:34:14.590Z,94743.48
2023-04-02T20:36:42.996Z,94742.45
2023-04-02T20:39:12.193Z,94744.90
2023-04-02T20:41:40.415Z,94745.28
2023-04-02T20:44:08.629Z,94751.05
2023-04-02T20:46:36.879Z,94753.26
2023-04-02T20:49:05.175Z,94753.92
2023-04-02T20:51:34.414Z,94754.39
2023-04-02T20:54:02.611Z,94755.07
2023-04-02T20:56:30.748Z,94752.25
2023-04-02T20:58:58.958Z,94754.35
2023-04-02T21:01:30.049Z,94749.52
2023-04-02T21:04:01.173Z,94752.91
2023-04-02T21:06:32.920Z,94754.53
2023-04-02T21:09:02.804Z,94757.89
2023-04-02T21:11:31.036Z,94761.21
2023-04-02T21:13:59.631Z,94761.70
2023-04-02T21:16:30.008Z,94761.34
2023-04-02T21:19:01.041Z,94763.45
2023-04-02T21:21:29.546Z,94772.23
2023-04-02T21:24:00.462Z,94770.88
2023-04-02T21:26:31.313Z,94770.89
2023-04-02T21:29:00.740Z,94772.04
2023-04-02T21:31:31.309Z,94776.70
2023-04-02T21:34:00.122Z,94781.58
2023-04-02T21:36:31.488Z,94785.46
2023-04-02T21:39:02.330Z,94785.70
2023-04-02T21:41:33.215Z,94788.42
2023-04-02T21:44:03.306Z,94790.73
2023-04-02T21:46:36.244Z,94791.97
2023-04-02T21:49:08.116Z,94790.52
2023-04-02T21:51:38.899Z,94790.75
2023-04-02T21:54:08.078Z,94794.80
2023-04-02T21:56:39.442Z,94790.91
2023-04-02T21:59:09.860Z,94796.54
2023-04-02T22:01:46.598Z,94797.96
2023-04-02T22:04:18.569Z,94799.46
2023-04-02T22:06:47.958Z,94799.74
2023-04-02T22:09:19.242Z,94802.76
2023-04-02T22:11:50.954Z,94801.95
2023-04-02T22:14:19.073Z,94798.01
2023-04-02T22:16:47.443Z,94799.10
2023-04-02T22:19:17.005Z,94802.60
2023-04-02T22:21:46.132Z,94804.08
2023-04-02T22:24:16.437Z,94806.45
2023-04-02T22:26:45.474Z,94805.93
2023-04-02T22:29:13.778Z,94809.02
2023-04-02T22:31:42.037Z,94815.40
2023-04-02T22:34:10.509Z,94814.77
2023-04-02T22:36:38.728Z,94818.17
2023-04-02T22:39:10.339Z,94818.89
2023-04-02T22:41:38.672Z,94820.15
2023-04-02T22:44:06.950Z,94823.29
2023-04-02T22:46:35.227Z,94825.52
2023-04-02T22:49:03.688Z,94831.83
2023-04-02T22:51:31.812Z,94831.77
2023-04-02T22:54:00.085Z,94829.79
2023-04-02T22:56:32.404Z,94828.36
2023-04-02T22:59:00.940Z,94831.65
2023-04-02T23:01:32.533Z,94830.83
2023-04-02T23:04:01.062Z,94825.38
2023-04-02T23:06:29.380Z,94829.23
2023-04-02T23:08:58.103Z,94831.65
2023-04-02T23:11:28.174Z,94833.06
2023-04-02T23:13:57.834Z,94834.95
2023-04-02T23:16:28.375Z,94832.17
2023-04-02T23:18:57.557Z,94834.11
2023-04-02T23:21:26.270Z,94833.63
2023-04-02T23:23:54.560Z,94833.00
2023-04-02T23:26:27.258Z,94835.17
2023-04-02T23:28:55.388Z,94833.63
2023-04-02T23:31:24.184Z,94832.61
2023-04-02T23:33:52.871Z,94834.06
2023-04-02T23:36:27.777Z,94831.15
2023-04-02T23:39:01.247Z,94836.77
2023-04-02T23:41:30.773Z,94835.26
2023-04-02T23:43:59.748Z,94831.75
2023-04-02T23:46:29.146Z,94833.39
2023-04-02T23:48:58.981Z,94838.61
2023-04-02T23:51:28.938Z,94839.64
2023-04-02T23:53:57.307Z,94836.02
2023-04-02T23:56:26.014Z,94832.89
2023-04-02T23:58:54.313Z,94833.50
